createdAt,value
2018-08-25T00:00:20.519Z,4.00
2018-08-25T00:02:49.660Z,3.67
2018-08-25T00:05:18.732Z,3.40
2018-08-25T00:07:47.790Z,3.00
2018-08-25T00:10:16.854Z,2.80
2018-08-25T00:12:45.931Z,2.70
2018-08-25T00:15:15.247Z,2.43
2018-08-25T00:17:44.261Z,2.20
2018-08-25T00:20:13.299Z,1.90
2018-08-25T00:22:42.434Z,2.33
2018-08-25T00:25:11.479Z,2.03
2018-08-25T00:27:40.552Z,2.00
2018-08-25T00:30:14.979Z,2.47
2018-08-25T00:32:44.122Z,2.43
2018-08-25T00:35:13.300Z,2.10
2018-08-25T00:37:42.448Z,1.97
2018-08-25T00:40:11.490Z,2.40
2018-08-25T00:42:40.550Z,1.50
2018-08-25T00:45:09.574Z,1.80
2018-08-25T00:47:38.649Z,2.23
2018-08-25T00:50:07.734Z,1.73
2018-08-25T00:52:36.804Z,2.07
2018-08-25T00:55:06.185Z,2.37
2018-08-25T00:57:35.379Z,2.40
2018-08-25T01:00:04.509Z,2.80
2018-08-25T01:02:33.592Z,2.40
2018-08-25T01:05:02.824Z,2.80
2018-08-25T01:07:31.927Z,2.70
2018-08-25T01:10:01.072Z,2.93
2018-08-25T01:12:30.364Z,2.63
2018-08-25T01:14:59.415Z,2.90
2018-08-25T01:17:28.449Z,2.40
2018-08-25T01:19:57.467Z,2.20
2018-08-25T01:22:26.521Z,2.00
2018-08-25T01:24:55.580Z,3.00
2018-08-25T01:27:24.746Z,2.07
2018-08-25T01:29:53.824Z,2.87
2018-08-25T01:32:22.973Z,2.53
2018-08-25T01:34:52.213Z,2.93
2018-08-25T01:37:21.323Z,2.77
2018-08-25T01:39:50.340Z,3.03
2018-08-25T01:42:19.453Z,4.13
2018-08-25T01:44:48.526Z,3.30
2018-08-25T01:47:17.592Z,3.07
2018-08-25T01:49:46.641Z,3.80
2018-08-25T01:52:15.663Z,2.60
2018-08-25T01:54:44.882Z,3.73
2018-08-25T01:57:14.234Z,4.03
2018-08-25T01:59:43.282Z,3.03
2018-08-25T02:02:12.372Z,4.63
2018-08-25T02:04:41.597Z,3.30
2018-08-25T02:07:10.685Z,3.20
2018-08-25T02:09:39.903Z,3.43
2018-08-25T02:12:09.109Z,3.47
2018-08-25T02:14:38.203Z,3.97
2018-08-25T02:17:07.961Z,3.90
2018-08-25T02:19:37.020Z,4.07
2018-08-25T02:22:06.068Z,5.30
2018-08-25T02:24:35.149Z,3.40
2018-08-25T02:27:04.395Z,3.70
2018-08-25T02:29:33.456Z,3.10
2018-08-25T02:32:02.514Z,3.23
2018-08-25T02:34:31.819Z,4.13
2018-08-25T02:37:00.876Z,3.33
2018-08-25T02:39:29.976Z,3.70
2018-08-25T02:41:59.003Z,3.40
2018-08-25T02:44:28.046Z,3.40
2018-08-25T02:46:57.110Z,3.50
2018-08-25T02:49:26.160Z,3.53
2018-08-25T02:51:55.201Z,3.93
2018-08-25T02:54:24.254Z,4.10
2018-08-25T02:56:53.616Z,4.27
2018-08-25T02:59:22.798Z,4.17
2018-08-25T03:01:52.071Z,4.27
2018-08-25T03:04:21.163Z,5.20
2018-08-25T03:06:50.259Z,4.50
2018-08-25T03:09:19.382Z,5.10
2018-08-25T03:11:48.426Z,5.17
2018-08-25T03:14:17.468Z,4.20
2018-08-25T03:16:46.514Z,4.23
2018-08-25T03:19:15.545Z,3.80
2018-08-25T03:21:44.559Z,4.20
2018-08-25T03:24:13.662Z,3.50
2018-08-25T03:26:42.724Z,3.10
2018-08-25T03:29:11.832Z,4.47
2018-08-25T03:31:40.928Z,4.27
2018-08-25T03:34:09.977Z,3.80
2018-08-25T03:36:39.072Z,3.43
2018-08-25T03:39:10.485Z,3.07
2018-08-25T03:41:39.612Z,3.10
2018-08-25T03:44:09.189Z,3.23
2018-08-25T03:46:38.263Z,3.47
2018-08-25T03:49:07.346Z,2.97
2018-08-25T03:51:36.553Z,2.80
2018-08-25T03:54:05.646Z,2.77
2018-08-25T03:56:34.664Z,3.20
2018-08-25T03:59:03.808Z,3.07
2018-08-25T04:01:32.940Z,3.10
2018-08-25T04:04:02.047Z,2.60
2018-08-25T04:06:31.457Z,2.83
2018-08-25T04:09:00.572Z,2.63
2018-08-25T04:11:29.737Z,2.83
2018-08-25T04:13:58.808Z,3.47
2018-08-25T04:16:27.927Z,3.10
2018-08-25T04:18:56.979Z,3.40
2018-08-25T04:21:26.033Z,3.40
2018-08-25T04:23:55.076Z,2.80
2018-08-25T04:26:24.144Z,3.97
2018-08-25T04:28:53.166Z,3.00
2018-08-25T04:31:22.234Z,3.03
2018-08-25T04:33:51.239Z,3.30
2018-08-25T04:36:20.313Z,3.80
2018-08-25T04:38:49.376Z,3.03
2018-08-25T04:41:18.514Z,3.33
2018-08-25T04:43:47.538Z,5.20
2018-08-25T04:46:16.554Z,3.40
2018-08-25T04:48:45.893Z,3.27
2018-08-25T04:51:15.454Z,2.80
2018-08-25T04:53:44.874Z,3.30
2018-08-25T04:56:13.906Z,2.83
2018-08-25T04:58:43.406Z,2.87
2018-08-25T05:01:12.467Z,2.70
2018-08-25T05:03:41.549Z,3.10
2018-08-25T05:06:10.765Z,2.80
2018-08-25T05:08:39.958Z,3.43
2018-08-25T05:11:09.054Z,3.07
2018-08-25T05:13:38.592Z,2.97
2018-08-25T05:16:07.672Z,2.57
2018-08-25T05:18:36.751Z,2.67
2018-08-25T05:21:06.202Z,2.60
2018-08-25T05:23:35.224Z,3.53
2018-08-25T05:26:04.349Z,3.13
2018-08-25T05:28:33.546Z,2.70
2018-08-25T05:31:02.583Z,2.70
2018-08-25T05:33:31.613Z,2.63
2018-08-25T05:36:01.000Z,2.73
2018-08-25T05:38:30.059Z,2.50
2018-08-25T05:40:59.287Z,2.87
2018-08-25T05:43:28.317Z,3.37
2018-08-25T05:45:57.418Z,3.30
2018-08-25T05:48:26.444Z,2.97
2018-08-25T05:50:55.521Z,2.97
2018-08-25T05:53:24.598Z,2.50
2018-08-25T05:55:53.654Z,3.53
2018-08-25T05:58:22.725Z,3.40
2018-08-25T06:00:51.765Z,2.93
2018-08-25T06:03:20.870Z,3.03
2018-08-25T06:05:50.007Z,4.57
2018-08-25T06:08:19.100Z,3.20
2018-08-25T06:10:48.309Z,4.03
2018-08-25T06:13:17.566Z,2.87
2018-08-25T06:15:46.693Z,3.17
2018-08-25T06:18:18.590Z,2.50
2018-08-25T06:20:47.751Z,3.17
2018-08-25T06:23:16.799Z,2.67
2018-08-25T06:25:45.895Z,2.90
2018-08-25T06:28:15.096Z,3.17
2018-08-25T06:30:44.206Z,2.50
2018-08-25T06:33:13.242Z,4.20
2018-08-25T06:35:42.291Z,2.87
2018-08-25T06:38:11.635Z,2.57
2018-08-25T06:40:40.728Z,3.13
2018-08-25T06:43:09.729Z,3.33
2018-08-25T06:45:38.814Z,2.37
2018-08-25T06:48:07.857Z,2.80
2018-08-25T06:50:36.923Z,2.90
2018-08-25T06:53:06.165Z,2.30
2018-08-25T06:55:35.219Z,2.90
2018-08-25T06:58:04.257Z,2.60
2018-08-25T07:00:33.349Z,3.40
2018-08-25T07:03:02.550Z,4.07
2018-08-25T07:05:31.678Z,3.07
2018-08-25T07:08:00.902Z,2.60
2018-08-25T07:10:30.082Z,2.60
2018-08-25T07:13:00.333Z,2.93
2018-08-25T07:15:29.491Z,2.80
2018-08-25T07:17:58.571Z,2.90
2018-08-25T07:20:27.847Z,2.90
2018-08-25T07:22:56.918Z,2.57
2018-08-25T07:25:25.982Z,3.13
2018-08-25T07:27:55.011Z,2.97
2018-08-25T07:30:24.048Z,2.80
2018-08-25T07:32:53.090Z,3.17
2018-08-25T07:35:22.195Z,2.87
2018-08-25T07:37:51.268Z,2.27
2018-08-25T07:40:20.357Z,3.27
2018-08-25T07:42:49.491Z,2.83
2018-08-25T07:45:18.679Z,2.60
2018-08-25T07:47:47.682Z,2.63
2018-08-25T07:50:16.752Z,3.17
2018-08-25T07:52:45.845Z,2.33
2018-08-25T07:55:15.138Z,3.17
2018-08-25T07:57:44.192Z,3.03
2018-08-25T08:00:14.201Z,3.30
2018-08-25T08:02:43.383Z,2.90
2018-08-25T08:05:12.487Z,3.27
2018-08-25T08:07:41.815Z,2.80
2018-08-25T08:10:11.766Z,2.93
2018-08-25T08:12:40.969Z,3.17
2018-08-25T08:15:10.332Z,2.70
2018-08-25T08:17:39.533Z,3.10
2018-08-25T08:20:08.631Z,3.37
2018-08-25T08:22:37.677Z,3.13
2018-08-25T08:25:06.774Z,3.50
2018-08-25T08:27:36.077Z,4.07
2018-08-25T08:30:06.100Z,4.07
2018-08-25T08:32:35.143Z,3.70
2018-08-25T08:35:04.231Z,4.00
2018-08-25T08:37:33.272Z,3.70
2018-08-25T08:40:02.357Z,3.60
2018-08-25T08:42:31.513Z,5.70
2018-08-25T08:45:00.696Z,4.33
2018-08-25T08:47:29.776Z,3.43
2018-08-25T08:49:58.884Z,4.30
2018-08-25T08:52:27.957Z,4.00
2018-08-25T08:54:56.962Z,3.30
2018-08-25T08:57:26.084Z,3.93
2018-08-25T08:59:55.150Z,2.40
2018-08-25T09:02:24.306Z,2.53
2018-08-25T09:04:53.417Z,2.67
2018-08-25T09:07:22.914Z,2.70
2018-08-25T09:09:52.040Z,3.50
2018-08-25T09:12:21.162Z,2.60
2018-08-25T09:14:50.306Z,2.60
2018-08-25T09:17:19.623Z,3.00
2018-08-25T09:19:48.886Z,2.70
2018-08-25T09:22:17.963Z,2.80
2018-08-25T09:24:47.053Z,3.90
2018-08-25T09:27:16.178Z,3.40
2018-08-25T09:29:45.155Z,3.67
2018-08-25T09:32:14.238Z,3.83
2018-08-25T09:34:43.351Z,4.57
2018-08-25T09:37:12.504Z,4.17
2018-08-25T09:39:41.571Z,4.23
2018-08-25T09:42:10.625Z,3.53
2018-08-25T09:44:39.750Z,4.80
2018-08-25T09:47:08.823Z,4.77
2018-08-25T09:49:37.932Z,4.63
2018-08-25T09:52:06.990Z,3.53
2018-08-25T09:54:36.046Z,4.17
2018-08-25T09:57:05.167Z,4.13
2018-08-25T09:59:34.269Z,4.33
2018-08-25T10:02:03.381Z,4.30
2018-08-25T10:04:32.595Z,2.90
2018-08-25T10:07:01.675Z,3.10
2018-08-25T10:09:30.843Z,3.83
2018-08-25T10:12:00.109Z,3.00
2018-08-25T10:14:29.495Z,4.13
2018-08-25T10:16:58.821Z,3.10
2018-08-25T10:19:27.991Z,3.40
2018-08-25T10:21:57.359Z,3.00
2018-08-25T10:24:26.495Z,4.37
2018-08-25T10:26:55.663Z,4.07
2018-08-25T10:29:24.718Z,3.67
2018-08-25T10:31:53.784Z,4.00
2018-08-25T10:34:22.875Z,3.70
2018-08-25T10:36:51.960Z,3.00
2018-08-25T10:39:21.034Z,3.70
2018-08-25T10:41:50.165Z,3.40
2018-08-25T10:44:19.178Z,3.47
2018-08-25T10:46:48.235Z,3.47
2018-08-25T10:49:17.338Z,3.00
2018-08-25T10:51:46.395Z,2.93
2018-08-25T10:54:15.539Z,3.27
2018-08-25T10:56:44.606Z,3.97
2018-08-25T10:59:13.729Z,3.13
2018-08-25T11:01:42.840Z,2.80
2018-08-25T11:04:12.106Z,3.30
2018-08-25T11:06:41.195Z,3.00
2018-08-25T11:09:12.943Z,3.20
2018-08-25T11:11:42.212Z,3.27
2018-08-25T11:14:11.614Z,4.00
2018-08-25T11:16:41.131Z,4.10
2018-08-25T11:19:10.313Z,3.07
2018-08-25T11:21:39.435Z,3.43
2018-08-25T11:24:08.694Z,3.47
2018-08-25T11:26:37.894Z,3.80
2018-08-25T11:29:07.147Z,3.10
2018-08-25T11:31:36.244Z,2.37
2018-08-25T11:34:05.290Z,1.20
2018-08-25T11:36:34.382Z,1.13
2018-08-25T11:39:03.466Z,1.10
2018-08-25T11:41:32.794Z,0.90
2018-08-25T11:44:01.925Z,0.83
2018-08-25T11:46:31.082Z,1.00
2018-08-25T11:49:00.286Z,0.90
2018-08-25T11:51:29.815Z,1.00
2018-08-25T11:53:59.389Z,0.80
2018-08-25T11:56:29.076Z,0.80
2018-08-25T11:58:58.127Z,1.00
2018-08-25T12:01:28.343Z,1.00
2018-08-25T12:03:57.571Z,1.10
2018-08-25T12:06:27.710Z,0.60
2018-08-25T12:08:56.808Z,1.57
2018-08-25T12:11:26.016Z,1.00
2018-08-25T12:13:55.377Z,0.97
2018-08-25T12:16:24.709Z,0.90
2018-08-25T12:18:54.700Z,0.90
2018-08-25T12:21:23.953Z,0.87
2018-08-25T12:23:53.293Z,0.93
2018-08-25T12:26:22.581Z,1.10
2018-08-25T12:31:39.740Z,1.33
2018-08-25T12:34:09.177Z,1.33
2018-08-25T12:36:38.339Z,1.50
2018-08-25T12:39:10.949Z,1.00
2018-08-25T12:41:41.266Z,2.07
2018-08-25T12:44:10.420Z,1.10
2018-08-25T12:46:39.658Z,1.60
2018-08-25T12:49:09.077Z,1.37
2018-08-25T12:51:41.665Z,1.37
2018-08-25T12:54:13.111Z,1.47
2018-08-25T12:56:42.294Z,1.50
2018-08-25T12:59:13.123Z,0.97
2018-08-25T13:01:42.711Z,1.20
2018-08-25T13:04:11.936Z,0.80
2018-08-25T13:06:41.020Z,0.90
2018-08-25T13:09:11.692Z,1.17
2018-08-25T13:11:40.983Z,1.03
2018-08-25T13:14:10.109Z,1.63
2018-08-25T13:16:39.277Z,1.00
2018-08-25T13:19:08.480Z,1.20
2018-08-25T13:21:38.459Z,2.17
2018-08-25T13:24:08.437Z,1.50
2018-08-25T13:26:39.128Z,1.57
2018-08-25T13:36:03.007Z,1.90
2018-08-25T13:38:32.781Z,1.80
2018-08-25T13:41:03.810Z,1.40
2018-08-25T13:43:57.993Z,3.70
2018-08-25T13:47:02.296Z,1.10
2018-08-25T14:01:31.629Z,1.10
2018-08-25T14:04:00.859Z,1.10
2018-08-25T14:06:29.901Z,1.50
2018-08-25T14:08:58.999Z,1.23
2018-08-25T14:11:28.109Z,0.80
2018-08-25T14:13:57.183Z,1.20
2018-08-25T14:16:31.743Z,0.90
2018-08-25T14:19:00.840Z,1.20
2018-08-25T14:21:29.892Z,1.37
2018-08-25T14:23:58.987Z,1.27
2018-08-25T14:26:28.068Z,1.30
2018-08-25T14:28:57.458Z,1.00
2018-08-25T14:31:26.734Z,1.07
2018-08-25T14:33:55.802Z,0.80
2018-08-25T14:36:24.864Z,1.10
2018-08-25T14:38:56.043Z,0.90
2018-08-25T14:41:25.075Z,0.80
2018-08-25T14:43:54.133Z,1.07
2018-08-25T14:46:23.197Z,1.00
2018-08-25T14:49:16.007Z,1.00
2018-08-25T14:51:45.130Z,1.03
2018-08-25T14:54:14.415Z,0.90
2018-08-25T14:56:45.175Z,1.13
2018-08-25T14:59:15.333Z,0.83
2018-08-25T15:01:44.634Z,0.70
2018-08-25T15:04:14.959Z,0.87
2018-08-25T15:06:44.116Z,0.80
2018-08-25T15:09:14.437Z,0.73
2018-08-25T15:11:44.765Z,0.77
2018-08-25T15:14:14.377Z,0.80
2018-08-25T15:16:43.544Z,1.37
2018-08-25T15:19:12.599Z,0.90
2018-08-25T15:21:41.676Z,0.93
2018-08-25T15:24:10.737Z,1.20
2018-08-25T15:26:39.833Z,0.80
2018-08-25T15:29:08.898Z,0.80
2018-08-25T15:31:37.937Z,0.73
2018-08-25T15:34:08.244Z,0.60
2018-08-25T15:36:37.340Z,1.07
2018-08-25T15:39:12.449Z,1.10
2018-08-25T15:41:41.547Z,1.27
2018-08-25T15:44:10.964Z,1.30
2018-08-25T15:46:40.106Z,0.90
2018-08-25T15:49:09.749Z,1.40
2018-08-25T15:51:38.833Z,1.23
2018-08-25T15:54:08.428Z,1.20
2018-08-25T15:56:37.481Z,1.10
2018-08-25T15:59:06.966Z,1.20
2018-08-25T16:01:36.403Z,1.10
2018-08-25T16:04:05.655Z,1.40
2018-08-25T16:06:34.698Z,1.63
2018-08-25T16:09:04.591Z,1.00
2018-08-25T16:11:33.708Z,1.20
2018-08-25T16:14:02.787Z,1.60
2018-08-25T16:16:31.946Z,1.40
2018-08-25T16:19:02.051Z,1.20
2018-08-25T16:21:31.177Z,0.93
2018-08-25T16:24:00.618Z,1.27
2018-08-25T16:26:29.847Z,1.50
2018-08-25T16:28:59.251Z,1.30
2018-08-25T16:31:28.662Z,1.17
2018-08-25T16:33:58.280Z,1.10
2018-08-25T16:36:27.848Z,1.30
2018-08-25T16:38:57.100Z,1.30
2018-08-25T16:41:26.245Z,1.90
2018-08-25T16:43:55.345Z,0.97
2018-08-25T16:46:24.409Z,1.27
2018-08-25T16:48:53.460Z,1.47
2018-08-25T16:51:22.630Z,0.93
2018-08-25T16:53:51.727Z,1.23
2018-08-25T16:56:20.773Z,1.30
2018-08-25T16:58:50.383Z,0.90
2018-08-25T17:01:19.442Z,1.30
2018-08-25T17:03:48.727Z,1.40
2018-08-25T17:06:17.835Z,1.30
2018-08-25T17:08:47.252Z,1.17
2018-08-25T17:11:16.346Z,1.00
2018-08-25T17:13:45.635Z,1.30
2018-08-25T17:16:15.303Z,1.10
2018-08-25T17:18:44.830Z,0.87
2018-08-25T17:21:14.024Z,1.10
2018-08-25T17:23:43.499Z,0.80
2018-08-25T17:26:12.691Z,1.13
2018-08-25T17:28:41.974Z,1.00
2018-08-25T17:31:11.264Z,1.07
2018-08-25T17:33:40.434Z,1.00
2018-08-25T17:36:09.606Z,4.23
2018-08-25T17:38:38.718Z,1.53
2018-08-25T17:41:07.833Z,0.97
2018-08-25T17:43:36.970Z,1.20
2018-08-25T17:46:06.057Z,1.03
2018-08-25T17:48:36.206Z,1.10
2018-08-25T17:51:05.318Z,1.13
2018-08-25T17:53:37.495Z,1.00
2018-08-25T17:56:06.968Z,1.20
2018-08-25T17:58:37.669Z,1.30
2018-08-25T18:01:08.390Z,1.40
2018-08-25T18:03:38.639Z,1.53
2018-08-25T18:06:07.713Z,1.30
2018-08-25T18:08:36.813Z,1.63
2018-08-25T18:11:06.482Z,1.67
2018-08-25T18:13:36.627Z,1.60
2018-08-25T18:16:06.292Z,1.20
2018-08-25T18:18:36.462Z,1.80
2018-08-25T18:21:06.348Z,1.30
2018-08-25T18:23:36.387Z,1.83
2018-08-25T18:26:05.875Z,1.60
2018-08-25T18:28:35.907Z,1.40
2018-08-25T18:31:05.027Z,1.87
2018-08-25T18:39:40.406Z,1.47
2018-08-25T18:42:09.888Z,1.90
2018-08-25T18:44:39.166Z,1.27
2018-08-25T18:47:08.508Z,2.30
2018-08-25T18:49:37.857Z,1.70
2018-08-25T18:52:07.844Z,1.33
2018-08-25T18:54:37.075Z,1.70
2018-08-25T18:57:06.705Z,1.60
2018-08-25T18:59:36.397Z,1.70
2018-08-25T19:02:05.896Z,1.83
2018-08-25T19:04:34.811Z,1.93
2018-08-25T19:07:03.995Z,1.83
2018-08-25T19:09:33.118Z,2.30
2018-08-25T19:12:03.306Z,1.93
2018-08-25T19:14:32.568Z,1.53
2018-08-25T19:17:01.722Z,1.43
2018-08-25T19:19:35.456Z,1.23
2018-08-25T19:22:04.551Z,1.70
2018-08-25T19:24:33.984Z,1.70
2018-08-25T19:27:05.872Z,1.50
2018-08-25T19:29:35.129Z,1.80
2018-08-25T19:32:04.329Z,1.70
2018-08-25T19:34:33.565Z,1.63
2018-08-25T19:37:03.621Z,1.50
2018-08-25T19:39:34.909Z,2.03
2018-08-25T19:42:04.155Z,1.90
2018-08-25T19:44:33.261Z,1.40
2018-08-25T19:47:02.518Z,1.60
2018-08-25T19:49:31.907Z,1.30
2018-08-25T19:52:01.041Z,1.90
2018-08-25T19:54:30.222Z,1.53
2018-08-25T19:56:59.620Z,1.83
2018-08-25T19:59:31.076Z,1.53
2018-08-25T20:02:23.721Z,1.63
2018-08-25T20:04:55.048Z,1.80
2018-08-25T20:07:43.607Z,1.80
2018-08-25T20:10:14.028Z,1.73
2018-08-25T20:12:43.212Z,1.67
2018-08-25T20:15:12.378Z,2.63
2018-08-25T20:17:41.663Z,2.20
2018-08-25T20:20:10.937Z,1.90
2018-08-25T20:22:40.147Z,1.70
2018-08-25T20:25:09.651Z,1.90
2018-08-25T20:27:38.932Z,1.97
2018-08-25T20:30:09.756Z,1.60
2018-08-25T20:32:39.095Z,1.43
2018-08-25T20:35:08.209Z,2.10
2018-08-25T20:37:37.593Z,3.37
2018-08-25T20:40:06.779Z,2.07
2018-08-25T20:42:37.151Z,2.13
2018-08-25T20:45:07.085Z,2.33
2018-08-25T20:47:36.194Z,2.00
2018-08-25T20:50:06.648Z,1.87
2018-08-25T20:52:36.112Z,1.63
2018-08-25T20:55:05.602Z,1.47
2018-08-25T20:57:34.868Z,1.80
2018-08-25T21:00:04.869Z,1.73
2018-08-25T21:02:34.588Z,1.83
2018-08-25T21:05:04.224Z,1.60
2018-08-25T21:07:33.562Z,2.10
2018-08-25T21:10:03.116Z,1.70
2018-08-25T21:12:32.476Z,1.40
2018-08-25T21:15:01.998Z,1.80
2018-08-25T21:17:31.526Z,1.33
2018-08-25T21:20:00.947Z,1.30
2018-08-25T21:22:30.113Z,1.57
2018-08-25T21:24:59.311Z,1.40
2018-08-25T21:27:28.582Z,1.37
2018-08-25T21:29:57.881Z,2.07
2018-08-25T21:32:27.062Z,1.80
2018-08-25T21:34:56.307Z,1.40
2018-08-25T21:37:25.603Z,1.73
2018-08-25T21:39:54.718Z,1.67
2018-08-25T21:42:24.065Z,2.20
2018-08-25T21:44:53.210Z,2.70
2018-08-25T21:47:22.308Z,2.23
2018-08-25T21:49:51.618Z,1.97
2018-08-25T21:52:20.812Z,1.57
2018-08-25T21:54:50.043Z,1.63
2018-08-25T21:57:19.272Z,1.73
2018-08-25T21:59:48.432Z,1.80
2018-08-25T22:02:17.855Z,2.20
2018-08-25T22:04:47.355Z,1.70
2018-08-25T22:07:16.485Z,1.40
2018-08-25T22:09:45.679Z,2.00
2018-08-25T22:12:14.845Z,2.60
2018-08-25T22:14:44.032Z,2.03
2018-08-25T22:17:13.389Z,2.07
2018-08-25T22:19:49.150Z,1.80
2018-08-25T22:22:18.209Z,1.60
2018-08-25T22:24:47.387Z,2.00
2018-08-25T22:27:16.579Z,2.50
2018-08-25T22:29:45.862Z,1.93
2018-08-25T22:32:15.182Z,1.70
2018-08-25T22:34:44.312Z,1.70
2018-08-25T22:37:13.584Z,1.80
2018-08-25T22:39:42.866Z,1.70
2018-08-25T22:42:12.017Z,1.90
2018-08-25T22:44:41.130Z,1.63
2018-08-25T22:47:10.379Z,1.57
2018-08-25T22:49:39.577Z,1.70
2018-08-25T22:52:08.712Z,1.70
2018-08-25T22:54:38.234Z,1.70
2018-08-25T22:57:07.501Z,1.90
2018-08-25T22:59:51.616Z,2.23
2018-08-25T23:02:35.325Z,2.00
2018-08-25T23:05:05.867Z,1.97
2018-08-25T23:07:35.123Z,2.03
2018-08-25T23:10:04.843Z,1.67
2018-08-25T23:12:34.531Z,2.10
2018-08-25T23:15:03.790Z,4.57
2018-08-25T23:17:32.848Z,2.40
2018-08-25T23:20:01.902Z,4.40
2018-08-25T23:22:30.969Z,2.23
2018-08-25T23:25:00.014Z,2.80
2018-08-25T23:27:29.107Z,2.17
2018-08-25T23:29:58.199Z,2.50
2018-08-25T23:32:27.287Z,2.40
2018-08-25T23:34:56.383Z,2.23
2018-08-25T23:37:25.458Z,1.80
2018-08-25T23:39:54.639Z,2.17
2018-08-25T23:42:23.825Z,2.40
2018-08-25T23:44:52.999Z,2.43
2018-08-25T23:47:22.074Z,2.00
2018-08-25T23:49:51.479Z,1.97
2018-08-25T23:52:20.520Z,2.17
2018-08-25T23:54:49.569Z,1.80
2018-08-25T23:57:18.594Z,1.63
2018-08-25T23:59:47.706Z,1.93
